sensor_id;sensor_type;location;lat;lon;timestamp;P1;durP1;ratioP1;P2;durP2;ratioP2
9739;SDS011;4909;42.680;26.324;2024-03-02T00:00:50;225.17;;;93.77;;
9739;SDS011;4909;42.680;26.324;2024-03-02T00:03:18;224.77;;;94.03;;
9739;SDS011;4909;42.680;26.324;2024-03-02T00:05:48;225.47;;;92.67;;
9739;SDS011;4909;42.680;26.324;2024-03-02T00:08:22;223.07;;;88.07;;
9739;SDS011;4909;42.680;26.324;2024-03-02T00:10:51;221.67;;;90.83;;
9739;SDS011;4909;42.680;26.324;2024-03-02T00:13:23;224.17;;;90.70;;
9739;SDS011;4909;42.680;26.324;2024-03-02T00:15:51;225.47;;;94.30;;
9739;SDS011;4909;42.680;26.324;2024-03-02T00:18:20;221.57;;;90.30;;
9739;SDS011;4909;42.680;26.324;2024-03-02T00:20:47;225.17;;;94.53;;
9739;SDS011;4909;42.680;26.324;2024-03-02T00:23:15;221.63;;;92.37;;
9739;SDS011;4909;42.680;26.324;2024-03-02T00:25:46;227.00;;;96.43;;
9739;SDS011;4909;42.680;26.324;2024-03-02T00:28:16;217.30;;;91.43;;
9739;SDS011;4909;42.680;26.324;2024-03-02T00:30:51;219.43;;;89.30;;
9739;SDS011;4909;42.680;26.324;2024-03-02T00:33:22;215.83;;;90.13;;
9739;SDS011;4909;42.680;26.324;2024-03-02T00:35:50;217.13;;;90.17;;
9739;SDS011;4909;42.680;26.324;2024-03-02T00:38:17;216.40;;;92.40;;
9739;SDS011;4909;42.680;26.324;2024-03-02T00:40:45;212.13;;;89.80;;
9739;SDS011;4909;42.680;26.324;2024-03-02T00:46:16;198.53;;;84.93;;
9739;SDS011;4909;42.680;26.324;2024-03-02T00:48:48;202.00;;;87.60;;
9739;SDS011;4909;42.680;26.324;2024-03-02T00:51:19;205.77;;;88.43;;
9739;SDS011;4909;42.680;26.324;2024-03-02T00:53:46;202.33;;;87.73;;
9739;SDS011;4909;42.680;26.324;2024-03-02T00:56:15;204.83;;;85.93;;
9739;SDS011;4909;42.680;26.324;2024-03-02T00:58:42;204.90;;;87.40;;
9739;SDS011;4909;42.680;26.324;2024-03-02T01:01:09;207.70;;;88.93;;
9739;SDS011;4909;42.680;26.324;2024-03-02T01:03:36;204.97;;;90.00;;
9739;SDS011;4909;42.680;26.324;2024-03-02T01:06:04;201.37;;;85.93;;
9739;SDS011;4909;42.680;26.324;2024-03-02T01:08:32;201.03;;;86.77;;
9739;SDS011;4909;42.680;26.324;2024-03-02T01:11:00;200.53;;;87.37;;
9739;SDS011;4909;42.680;26.324;2024-03-02T01:13:28;206.13;;;86.70;;
9739;SDS011;4909;42.680;26.324;2024-03-02T01:15:55;206.77;;;86.53;;
9739;SDS011;4909;42.680;26.324;2024-03-02T01:18:22;205.47;;;88.50;;
9739;SDS011;4909;42.680;26.324;2024-03-02T01:20:50;202.30;;;89.20;;
9739;SDS011;4909;42.680;26.324;2024-03-02T01:23:18;206.97;;;87.13;;
9739;SDS011;4909;42.680;26.324;2024-03-02T01:25:46;206.30;;;89.00;;
9739;SDS011;4909;42.680;26.324;2024-03-02T01:28:13;209.43;;;89.17;;
9739;SDS011;4909;42.680;26.324;2024-03-02T01:30:41;221.17;;;132.07;;
9739;SDS011;4909;42.680;26.324;2024-03-02T01:33:09;205.43;;;88.40;;
9739;SDS011;4909;42.680;26.324;2024-03-02T01:35:36;202.40;;;87.67;;
9739;SDS011;4909;42.680;26.324;2024-03-02T01:38:03;202.43;;;86.37;;
9739;SDS011;4909;42.680;26.324;2024-03-02T01:40:32;202.37;;;90.83;;
9739;SDS011;4909;42.680;26.324;2024-03-02T01:42:59;185.27;;;83.90;;
9739;SDS011;4909;42.680;26.324;2024-03-02T01:45:27;206.40;;;89.10;;
9739;SDS011;4909;42.680;26.324;2024-03-02T01:47:56;203.20;;;88.53;;
9739;SDS011;4909;42.680;26.324;2024-03-02T01:50:26;208.03;;;89.57;;
9739;SDS011;4909;42.680;26.324;2024-03-02T01:52:54;207.10;;;92.17;;
9739;SDS011;4909;42.680;26.324;2024-03-02T01:55:21;210.43;;;90.20;;
9739;SDS011;4909;42.680;26.324;2024-03-02T01:57:48;205.67;;;87.07;;
9739;SDS011;4909;42.680;26.324;2024-03-02T02:00:17;203.43;;;87.87;;
9739;SDS011;4909;42.680;26.324;2024-03-02T02:02:44;204.77;;;88.97;;
9739;SDS011;4909;42.680;26.324;2024-03-02T02:05:13;210.07;;;91.47;;
9739;SDS011;4909;42.680;26.324;2024-03-02T02:07:40;209.17;;;93.33;;
9739;SDS011;4909;42.680;26.324;2024-03-02T02:10:08;208.57;;;90.33;;
9739;SDS011;4909;42.680;26.324;2024-03-02T02:12:36;204.63;;;88.73;;
9739;SDS011;4909;42.680;26.324;2024-03-02T02:15:03;205.50;;;93.17;;
9739;SDS011;4909;42.680;26.324;2024-03-02T02:17:31;206.70;;;92.60;;
9739;SDS011;4909;42.680;26.324;2024-03-02T02:19:58;203.53;;;90.80;;
9739;SDS011;4909;42.680;26.324;2024-03-02T02:22:26;199.83;;;88.30;;
9739;SDS011;4909;42.680;26.324;2024-03-02T02:24:53;196.60;;;88.03;;
9739;SDS011;4909;42.680;26.324;2024-03-02T02:27:20;194.27;;;86.17;;
9739;SDS011;4909;42.680;26.324;2024-03-02T02:29:47;193.07;;;86.93;;
9739;SDS011;4909;42.680;26.324;2024-03-02T02:32:14;193.63;;;85.77;;
9739;SDS011;4909;42.680;26.324;2024-03-02T02:34:41;190.07;;;85.03;;
9739;SDS011;4909;42.680;26.324;2024-03-02T02:37:08;195.00;;;85.47;;
9739;SDS011;4909;42.680;26.324;2024-03-02T02:39:36;198.53;;;89.23;;
9739;SDS011;4909;42.680;26.324;2024-03-02T02:42:03;195.73;;;88.70;;
9739;SDS011;4909;42.680;26.324;2024-03-02T02:44:30;198.93;;;87.23;;
9739;SDS011;4909;42.680;26.324;2024-03-02T02:46:57;196.40;;;85.07;;
9739;SDS011;4909;42.680;26.324;2024-03-02T02:49:24;201.93;;;90.30;;
9739;SDS011;4909;42.680;26.324;2024-03-02T02:51:51;190.93;;;86.93;;
9739;SDS011;4909;42.680;26.324;2024-03-02T02:54:18;195.03;;;87.90;;
9739;SDS011;4909;42.680;26.324;2024-03-02T02:56:47;196.27;;;88.53;;
9739;SDS011;4909;42.680;26.324;2024-03-02T02:59:14;193.03;;;85.57;;
9739;SDS011;4909;42.680;26.324;2024-03-02T03:01:41;189.83;;;84.17;;
9739;SDS011;4909;42.680;26.324;2024-03-02T03:04:07;198.83;;;86.80;;
9739;SDS011;4909;42.680;26.324;2024-03-02T03:06:34;197.60;;;87.13;;
9739;SDS011;4909;42.680;26.324;2024-03-02T03:09:01;198.40;;;86.93;;
9739;SDS011;4909;42.680;26.324;2024-03-02T03:11:28;198.93;;;87.57;;
9739;SDS011;4909;42.680;26.324;2024-03-02T03:13:57;198.60;;;87.53;;
9739;SDS011;4909;42.680;26.324;2024-03-02T03:16:25;203.63;;;89.20;;
9739;SDS011;4909;42.680;26.324;2024-03-02T03:18:52;205.23;;;91.40;;
9739;SDS011;4909;42.680;26.324;2024-03-02T03:21:19;203.97;;;88.00;;
9739;SDS011;4909;42.680;26.324;2024-03-02T03:23:46;199.50;;;88.00;;
9739;SDS011;4909;42.680;26.324;2024-03-02T03:26:13;184.87;;;87.57;;
9739;SDS011;4909;42.680;26.324;2024-03-02T03:28:40;179.37;;;85.53;;
9739;SDS011;4909;42.680;26.324;2024-03-02T03:31:08;180.17;;;86.10;;
9739;SDS011;4909;42.680;26.324;2024-03-02T03:33:35;179.97;;;86.07;;
9739;SDS011;4909;42.680;26.324;2024-03-02T03:36:03;177.83;;;86.43;;
9739;SDS011;4909;42.680;26.324;2024-03-02T03:38:30;179.50;;;85.67;;
9739;SDS011;4909;42.680;26.324;2024-03-02T03:40:57;180.47;;;87.17;;
9739;SDS011;4909;42.680;26.324;2024-03-02T03:43:24;176.70;;;86.80;;
9739;SDS011;4909;42.680;26.324;2024-03-02T03:45:51;178.03;;;84.30;;
9739;SDS011;4909;42.680;26.324;2024-03-02T03:48:19;180.03;;;87.20;;
9739;SDS011;4909;42.680;26.324;2024-03-02T03:50:46;178.93;;;86.73;;
9739;SDS011;4909;42.680;26.324;2024-03-02T03:53:13;177.33;;;83.87;;
9739;SDS011;4909;42.680;26.324;2024-03-02T03:55:41;180.97;;;83.63;;
9739;SDS011;4909;42.680;26.324;2024-03-02T03:58:08;195.03;;;89.03;;
9739;SDS011;4909;42.680;26.324;2024-03-02T04:00:35;195.60;;;86.77;;
9739;SDS011;4909;42.680;26.324;2024-03-02T04:03:02;194.07;;;86.10;;
9739;SDS011;4909;42.680;26.324;2024-03-02T04:05:30;199.13;;;85.03;;
9739;SDS011;4909;42.680;26.324;2024-03-02T04:07:57;197.73;;;90.60;;
9739;SDS011;4909;42.680;26.324;2024-03-02T04:10:25;197.80;;;88.23;;
9739;SDS011;4909;42.680;26.324;2024-03-02T04:12:52;205.03;;;90.10;;
9739;SDS011;4909;42.680;26.324;2024-03-02T04:15:19;206.43;;;89.87;;
9739;SDS011;4909;42.680;26.324;2024-03-02T04:17:48;203.97;;;90.93;;
9739;SDS011;4909;42.680;26.324;2024-03-02T04:20:15;207.30;;;90.17;;
9739;SDS011;4909;42.680;26.324;2024-03-02T04:22:43;212.50;;;92.43;;
9739;SDS011;4909;42.680;26.324;2024-03-02T04:25:10;205.00;;;89.03;;
9739;SDS011;4909;42.680;26.324;2024-03-02T04:27:37;207.23;;;90.30;;
9739;SDS011;4909;42.680;26.324;2024-03-02T04:30:06;210.47;;;89.63;;
9739;SDS011;4909;42.680;26.324;2024-03-02T04:32:33;206.20;;;98.13;;
9739;SDS011;4909;42.680;26.324;2024-03-02T04:35:01;204.40;;;87.67;;
9739;SDS011;4909;42.680;26.324;2024-03-02T04:37:28;207.57;;;89.17;;
9739;SDS011;4909;42.680;26.324;2024-03-02T04:39:57;209.97;;;92.60;;
9739;SDS011;4909;42.680;26.324;2024-03-02T04:42:24;203.17;;;90.87;;
9739;SDS011;4909;42.680;26.324;2024-03-02T04:44:51;203.50;;;90.30;;
9739;SDS011;4909;42.680;26.324;2024-03-02T04:47:18;200.83;;;87.57;;
9739;SDS011;4909;42.680;26.324;2024-03-02T04:49:45;203.80;;;86.13;;
9739;SDS011;4909;42.680;26.324;2024-03-02T04:52:12;206.63;;;88.90;;
9739;SDS011;4909;42.680;26.324;2024-03-02T04:54:39;204.13;;;89.30;;
9739;SDS011;4909;42.680;26.324;2024-03-02T04:57:21;209.83;;;92.13;;
9739;SDS011;4909;42.680;26.324;2024-03-02T04:59:48;205.87;;;90.73;;
9739;SDS011;4909;42.680;26.324;2024-03-02T05:02:15;207.10;;;90.47;;
9739;SDS011;4909;42.680;26.324;2024-03-02T05:04:42;206.13;;;89.60;;
9739;SDS011;4909;42.680;26.324;2024-03-02T05:07:09;208.53;;;90.23;;
9739;SDS011;4909;42.680;26.324;2024-03-02T05:09:36;207.60;;;89.47;;
9739;SDS011;4909;42.680;26.324;2024-03-02T05:12:03;210.00;;;92.13;;
9739;SDS011;4909;42.680;26.324;2024-03-02T05:14:49;204.57;;;90.57;;
9739;SDS011;4909;42.680;26.324;2024-03-02T05:17:16;206.47;;;90.83;;
9739;SDS011;4909;42.680;26.324;2024-03-02T05:19:43;205.20;;;90.33;;
9739;SDS011;4909;42.680;26.324;2024-03-02T05:22:10;199.83;;;87.23;;
9739;SDS011;4909;42.680;26.324;2024-03-02T05:24:37;200.90;;;88.90;;
9739;SDS011;4909;42.680;26.324;2024-03-02T05:27:04;204.77;;;90.03;;
9739;SDS011;4909;42.680;26.324;2024-03-02T05:29:32;201.37;;;88.77;;
9739;SDS011;4909;42.680;26.324;2024-03-02T05:32:01;195.50;;;87.77;;
9739;SDS011;4909;42.680;26.324;2024-03-02T05:34:28;202.10;;;91.37;;
9739;SDS011;4909;42.680;26.324;2024-03-02T05:36:55;196.97;;;91.57;;
9739;SDS011;4909;42.680;26.324;2024-03-02T05:39:23;202.40;;;89.80;;
9739;SDS011;4909;42.680;26.324;2024-03-02T05:41:50;201.13;;;91.13;;
9739;SDS011;4909;42.680;26.324;2024-03-02T05:44:17;203.33;;;92.83;;
9739;SDS011;4909;42.680;26.324;2024-03-02T05:46:44;212.67;;;93.37;;
9739;SDS011;4909;42.680;26.324;2024-03-02T05:49:13;215.10;;;91.37;;
9739;SDS011;4909;42.680;26.324;2024-03-02T05:51:40;217.80;;;93.67;;
9739;SDS011;4909;42.680;26.324;2024-03-02T05:54:07;222.10;;;95.37;;
9739;SDS011;4909;42.680;26.324;2024-03-02T05:56:34;229.70;;;94.67;;
9739;SDS011;4909;42.680;26.324;2024-03-02T05:59:01;224.80;;;92.00;;
9739;SDS011;4909;42.680;26.324;2024-03-02T06:01:37;225.90;;;92.73;;
9739;SDS011;4909;42.680;26.324;2024-03-02T06:04:05;227.57;;;99.07;;
9739;SDS011;4909;42.680;26.324;2024-03-02T06:06:33;229.43;;;95.23;;
9739;SDS011;4909;42.680;26.324;2024-03-02T06:09:00;235.90;;;99.30;;
9739;SDS011;4909;42.680;26.324;2024-03-02T06:11:30;230.87;;;96.70;;
9739;SDS011;4909;42.680;26.324;2024-03-02T06:13:57;229.10;;;98.53;;
9739;SDS011;4909;42.680;26.324;2024-03-02T06:16:24;228.90;;;95.77;;
9739;SDS011;4909;42.680;26.324;2024-03-02T06:18:51;228.23;;;95.90;;
9739;SDS011;4909;42.680;26.324;2024-03-02T06:21:19;224.77;;;94.27;;
9739;SDS011;4909;42.680;26.324;2024-03-02T06:23:47;224.63;;;97.33;;
9739;SDS011;4909;42.680;26.324;2024-03-02T06:26:14;229.50;;;96.47;;
9739;SDS011;4909;42.680;26.324;2024-03-02T06:28:41;224.47;;;94.07;;
9739;SDS011;4909;42.680;26.324;2024-03-02T06:31:09;231.63;;;96.03;;
9739;SDS011;4909;42.680;26.324;2024-03-02T06:33:36;231.27;;;96.67;;
9739;SDS011;4909;42.680;26.324;2024-03-02T06:36:03;233.53;;;101.70;;
9739;SDS011;4909;42.680;26.324;2024-03-02T06:38:30;231.83;;;99.80;;
9739;SDS011;4909;42.680;26.324;2024-03-02T06:40:58;231.40;;;96.97;;
9739;SDS011;4909;42.680;26.324;2024-03-02T06:43:25;234.00;;;100.97;;
9739;SDS011;4909;42.680;26.324;2024-03-02T06:45:53;230.50;;;99.13;;
9739;SDS011;4909;42.680;26.324;2024-03-02T06:48:20;224.83;;;99.93;;
9739;SDS011;4909;42.680;26.324;2024-03-02T06:50:47;217.60;;;98.57;;
9739;SDS011;4909;42.680;26.324;2024-03-02T06:53:14;225.00;;;102.33;;
9739;SDS011;4909;42.680;26.324;2024-03-02T06:55:42;224.40;;;98.47;;
9739;SDS011;4909;42.680;26.324;2024-03-02T06:58:12;226.27;;;99.80;;
9739;SDS011;4909;42.680;26.324;2024-03-02T07:00:40;221.00;;;96.80;;
9739;SDS011;4909;42.680;26.324;2024-03-02T07:03:07;227.43;;;100.63;;
9739;SDS011;4909;42.680;26.324;2024-03-02T07:05:34;220.17;;;99.93;;
9739;SDS011;4909;42.680;26.324;2024-03-02T07:08:01;226.13;;;100.03;;
9739;SDS011;4909;42.680;26.324;2024-03-02T07:10:30;225.07;;;104.83;;
9739;SDS011;4909;42.680;26.324;2024-03-02T07:12:57;224.63;;;100.13;;
9739;SDS011;4909;42.680;26.324;2024-03-02T07:15:25;228.20;;;101.13;;
9739;SDS011;4909;42.680;26.324;2024-03-02T07:18:09;226.03;;;102.30;;
9739;SDS011;4909;42.680;26.324;2024-03-02T07:20:36;230.30;;;106.27;;
9739;SDS011;4909;42.680;26.324;2024-03-02T07:23:04;229.17;;;102.60;;
9739;SDS011;4909;42.680;26.324;2024-03-02T07:25:32;232.73;;;99.63;;
9739;SDS011;4909;42.680;26.324;2024-03-02T07:27:58;238.53;;;104.47;;
9739;SDS011;4909;42.680;26.324;2024-03-02T07:30:27;239.77;;;103.90;;
9739;SDS011;4909;42.680;26.324;2024-03-02T07:32:54;242.80;;;107.40;;
9739;SDS011;4909;42.680;26.324;2024-03-02T07:35:21;231.67;;;101.83;;
9739;SDS011;4909;42.680;26.324;2024-03-02T07:37:51;247.30;;;105.87;;
9739;SDS011;4909;42.680;26.324;2024-03-02T07:40:19;235.80;;;107.70;;
9739;SDS011;4909;42.680;26.324;2024-03-02T07:42:46;209.23;;;103.90;;
9739;SDS011;4909;42.680;26.324;2024-03-02T07:45:13;200.87;;;101.13;;
9739;SDS011;4909;42.680;26.324;2024-03-02T07:47:41;205.47;;;102.27;;
9739;SDS011;4909;42.680;26.324;2024-03-02T07:50:09;197.13;;;98.47;;
9739;SDS011;4909;42.680;26.324;2024-03-02T07:52:36;238.67;;;102.73;;
9739;SDS011;4909;42.680;26.324;2024-03-02T07:55:03;246.10;;;107.70;;
9739;SDS011;4909;42.680;26.324;2024-03-02T07:57:30;247.17;;;109.13;;
9739;SDS011;4909;42.680;26.324;2024-03-02T07:59:58;243.40;;;104.43;;
9739;SDS011;4909;42.680;26.324;2024-03-02T08:02:25;249.00;;;108.87;;
9739;SDS011;4909;42.680;26.324;2024-03-02T08:04:54;249.77;;;107.93;;
9739;SDS011;4909;42.680;26.324;2024-03-02T08:07:21;249.13;;;104.87;;
9739;SDS011;4909;42.680;26.324;2024-03-02T08:09:48;252.67;;;107.90;;
9739;SDS011;4909;42.680;26.324;2024-03-02T08:12:15;254.90;;;113.43;;
9739;SDS011;4909;42.680;26.324;2024-03-02T08:14:43;255.60;;;106.60;;
9739;SDS011;4909;42.680;26.324;2024-03-02T08:17:10;256.30;;;110.20;;
9739;SDS011;4909;42.680;26.324;2024-03-02T08:19:37;251.50;;;107.40;;
9739;SDS011;4909;42.680;26.324;2024-03-02T08:22:06;252.90;;;109.30;;
9739;SDS011;4909;42.680;26.324;2024-03-02T08:24:33;250.03;;;106.20;;
9739;SDS011;4909;42.680;26.324;2024-03-02T08:27:01;259.87;;;110.30;;
9739;SDS011;4909;42.680;26.324;2024-03-02T08:29:28;257.97;;;112.10;;
9739;SDS011;4909;42.680;26.324;2024-03-02T08:31:55;255.00;;;114.10;;
9739;SDS011;4909;42.680;26.324;2024-03-02T08:34:22;248.67;;;110.63;;
9739;SDS011;4909;42.680;26.324;2024-03-02T08:36:49;241.50;;;112.47;;
9739;SDS011;4909;42.680;26.324;2024-03-02T08:39:18;241.30;;;110.00;;
9739;SDS011;4909;42.680;26.324;2024-03-02T08:41:46;236.53;;;111.80;;
9739;SDS011;4909;42.680;26.324;2024-03-02T08:44:13;261.50;;;112.47;;
9739;SDS011;4909;42.680;26.324;2024-03-02T08:46:40;264.43;;;115.33;;
9739;SDS011;4909;42.680;26.324;2024-03-02T08:49:07;265.37;;;114.67;;
9739;SDS011;4909;42.680;26.324;2024-03-02T08:51:35;259.67;;;113.60;;
9739;SDS011;4909;42.680;26.324;2024-03-02T08:54:02;260.87;;;112.40;;
9739;SDS011;4909;42.680;26.324;2024-03-02T08:56:31;264.57;;;113.27;;
9739;SDS011;4909;42.680;26.324;2024-03-02T08:58:58;263.63;;;113.77;;
9739;SDS011;4909;42.680;26.324;2024-03-02T09:01:25;262.30;;;112.60;;
9739;SDS011;4909;42.680;26.324;2024-03-02T09:03:52;260.80;;;113.57;;
9739;SDS011;4909;42.680;26.324;2024-03-02T09:06:19;260.80;;;110.97;;
9739;SDS011;4909;42.680;26.324;2024-03-02T09:08:46;257.00;;;110.07;;
9739;SDS011;4909;42.680;26.324;2024-03-02T09:11:15;258.43;;;107.43;;
9739;SDS011;4909;42.680;26.324;2024-03-02T09:13:43;262.47;;;111.93;;
9739;SDS011;4909;42.680;26.324;2024-03-02T09:16:10;242.70;;;108.57;;
9739;SDS011;4909;42.680;26.324;2024-03-02T09:18:37;247.10;;;109.23;;
9739;SDS011;4909;42.680;26.324;2024-03-02T09:21:04;240.73;;;107.50;;
9739;SDS011;4909;42.680;26.324;2024-03-02T09:23:32;238.50;;;110.83;;
9739;SDS011;4909;42.680;26.324;2024-03-02T09:25:59;234.93;;;103.17;;
9739;SDS011;4909;42.680;26.324;2024-03-02T09:28:26;239.43;;;108.77;;
9739;SDS011;4909;42.680;26.324;2024-03-02T09:30:55;232.63;;;104.60;;
9739;SDS011;4909;42.680;26.324;2024-03-02T09:33:22;243.03;;;112.27;;
9739;SDS011;4909;42.680;26.324;2024-03-02T09:35:49;239.70;;;112.57;;
9739;SDS011;4909;42.680;26.324;2024-03-02T09:38:16;236.40;;;109.30;;
9739;SDS011;4909;42.680;26.324;2024-03-02T09:40:43;239.33;;;103.87;;
9739;SDS011;4909;42.680;26.324;2024-03-02T09:43:10;258.60;;;108.90;;
9739;SDS011;4909;42.680;26.324;2024-03-02T09:45:38;252.30;;;112.10;;
9739;SDS011;4909;42.680;26.324;2024-03-02T09:48:07;255.93;;;113.10;;
9739;SDS011;4909;42.680;26.324;2024-03-02T09:50:34;256.00;;;113.80;;
9739;SDS011;4909;42.680;26.324;2024-03-02T09:53:01;255.60;;;107.07;;
9739;SDS011;4909;42.680;26.324;2024-03-02T09:55:28;259.80;;;111.10;;
9739;SDS011;4909;42.680;26.324;2024-03-02T09:57:55;261.73;;;113.23;;
9739;SDS011;4909;42.680;26.324;2024-03-02T10:00:22;259.13;;;114.37;;
9739;SDS011;4909;42.680;26.324;2024-03-02T10:02:50;254.17;;;107.87;;
9739;SDS011;4909;42.680;26.324;2024-03-02T10:05:24;262.03;;;115.60;;
9739;SDS011;4909;42.680;26.324;2024-03-02T10:07:59;257.83;;;112.93;;
9739;SDS011;4909;42.680;26.324;2024-03-02T10:10:34;256.73;;;111.40;;
9739;SDS011;4909;42.680;26.324;2024-03-02T10:13:05;255.27;;;110.97;;
9739;SDS011;4909;42.680;26.324;2024-03-02T10:15:34;257.37;;;112.33;;
9739;SDS011;4909;42.680;26.324;2024-03-02T10:18:02;257.63;;;111.13;;
9739;SDS011;4909;42.680;26.324;2024-03-02T10:20:31;264.77;;;117.30;;
9739;SDS011;4909;42.680;26.324;2024-03-02T10:23:09;260.43;;;115.83;;
9739;SDS011;4909;42.680;26.324;2024-03-02T10:25:37;258.67;;;111.07;;
9739;SDS011;4909;42.680;26.324;2024-03-02T10:28:04;261.93;;;113.63;;
9739;SDS011;4909;42.680;26.324;2024-03-02T10:30:32;257.23;;;111.40;;
9739;SDS011;4909;42.680;26.324;2024-03-02T10:32:59;257.33;;;112.80;;
9739;SDS011;4909;42.680;26.324;2024-03-02T10:35:27;263.50;;;115.87;;
9739;SDS011;4909;42.680;26.324;2024-03-02T10:37:57;261.00;;;113.13;;
9739;SDS011;4909;42.680;26.324;2024-03-02T10:40:26;263.43;;;115.53;;
9739;SDS011;4909;42.680;26.324;2024-03-02T10:42:53;267.60;;;118.53;;
9739;SDS011;4909;42.680;26.324;2024-03-02T10:45:20;264.10;;;117.57;;
9739;SDS011;4909;42.680;26.324;2024-03-02T10:47:48;271.60;;;118.53;;
9739;SDS011;4909;42.680;26.324;2024-03-02T10:50:16;263.20;;;116.40;;
9739;SDS011;4909;42.680;26.324;2024-03-02T10:52:44;271.17;;;118.57;;
9739;SDS011;4909;42.680;26.324;2024-03-02T10:55:13;268.67;;;112.80;;
9739;SDS011;4909;42.680;26.324;2024-03-02T10:57:45;273.00;;;121.70;;
9739;SDS011;4909;42.680;26.324;2024-03-02T11:00:19;274.37;;;117.13;;
9739;SDS011;4909;42.680;26.324;2024-03-02T11:02:50;270.93;;;116.17;;
9739;SDS011;4909;42.680;26.324;2024-03-02T11:05:23;273.70;;;122.20;;
9739;SDS011;4909;42.680;26.324;2024-03-02T11:07:57;273.30;;;117.93;;
9739;SDS011;4909;42.680;26.324;2024-03-02T11:10:31;271.67;;;115.83;;
9739;SDS011;4909;42.680;26.324;2024-03-02T11:13:05;278.93;;;122.73;;
9739;SDS011;4909;42.680;26.324;2024-03-02T11:15:37;285.37;;;121.80;;
9739;SDS011;4909;42.680;26.324;2024-03-02T11:18:06;284.57;;;123.23;;
9739;SDS011;4909;42.680;26.324;2024-03-02T11:20:36;276.97;;;122.20;;
9739;SDS011;4909;42.680;26.324;2024-03-02T11:23:05;276.70;;;124.37;;
9739;SDS011;4909;42.680;26.324;2024-03-02T11:25:34;279.37;;;127.40;;
9739;SDS011;4909;42.680;26.324;2024-03-02T11:28:03;283.53;;;124.83;;
9739;SDS011;4909;42.680;26.324;2024-03-02T11:30:49;288.00;;;124.73;;
9739;SDS011;4909;42.680;26.324;2024-03-02T11:33:22;288.50;;;123.93;;
9739;SDS011;4909;42.680;26.324;2024-03-02T11:35:52;284.67;;;125.80;;
9739;SDS011;4909;42.680;26.324;2024-03-02T11:38:19;273.47;;;121.57;;
9739;SDS011;4909;42.680;26.324;2024-03-02T11:40:47;289.93;;;134.50;;
9739;SDS011;4909;42.680;26.324;2024-03-02T11:43:15;293.50;;;127.10;;
9739;SDS011;4909;42.680;26.324;2024-03-02T11:45:42;289.17;;;123.33;;
9739;SDS011;4909;42.680;26.324;2024-03-02T11:48:11;289.53;;;124.33;;
9739;SDS011;4909;42.680;26.324;2024-03-02T11:50:40;288.97;;;122.13;;
9739;SDS011;4909;42.680;26.324;2024-03-02T11:53:09;288.50;;;125.80;;
9739;SDS011;4909;42.680;26.324;2024-03-02T11:55:38;291.30;;;124.63;;
9739;SDS011;4909;42.680;26.324;2024-03-02T11:58:07;284.73;;;124.57;;
9739;SDS011;4909;42.680;26.324;2024-03-02T12:00:35;286.07;;;123.07;;
9739;SDS011;4909;42.680;26.324;2024-03-02T12:03:02;290.37;;;121.20;;
9739;SDS011;4909;42.680;26.324;2024-03-02T12:05:32;280.27;;;118.53;;
9739;SDS011;4909;42.680;26.324;2024-03-02T12:08:00;289.93;;;125.40;;
9739;SDS011;4909;42.680;26.324;2024-03-02T12:10:28;284.47;;;124.93;;
9739;SDS011;4909;42.680;26.324;2024-03-02T12:12:56;287.63;;;119.30;;
9739;SDS011;4909;42.680;26.324;2024-03-02T12:15:26;282.07;;;120.30;;
9739;SDS011;4909;42.680;26.324;2024-03-02T12:17:54;283.93;;;121.50;;
9739;SDS011;4909;42.680;26.324;2024-03-02T12:20:21;265.23;;;122.37;;
9739;SDS011;4909;42.680;26.324;2024-03-02T12:22:50;280.13;;;120.20;;
9739;SDS011;4909;42.680;26.324;2024-03-02T12:25:18;285.37;;;121.50;;
9739;SDS011;4909;42.680;26.324;2024-03-02T12:27:46;281.80;;;120.70;;
9739;SDS011;4909;42.680;26.324;2024-03-02T12:30:14;284.43;;;127.10;;
9739;SDS011;4909;42.680;26.324;2024-03-02T12:32:44;285.60;;;121.07;;
9739;SDS011;4909;42.680;26.324;2024-03-02T12:35:11;260.60;;;125.20;;
9739;SDS011;4909;42.680;26.324;2024-03-02T12:37:43;273.90;;;122.73;;
9739;SDS011;4909;42.680;26.324;2024-03-02T12:40:11;280.57;;;122.80;;
9739;SDS011;4909;42.680;26.324;2024-03-02T12:42:38;282.90;;;128.07;;
9739;SDS011;4909;42.680;26.324;2024-03-02T12:45:07;283.37;;;124.10;;
9739;SDS011;4909;42.680;26.324;2024-03-02T12:47:34;278.93;;;117.33;;
9739;SDS011;4909;42.680;26.324;2024-03-02T12:50:04;281.10;;;120.10;;
9739;SDS011;4909;42.680;26.324;2024-03-02T12:52:31;283.83;;;120.83;;
9739;SDS011;4909;42.680;26.324;2024-03-02T12:54:59;285.87;;;122.80;;
9739;SDS011;4909;42.680;26.324;2024-03-02T12:57:28;285.50;;;123.30;;
9739;SDS011;4909;42.680;26.324;2024-03-02T12:59:59;286.93;;;123.97;;
9739;SDS011;4909;42.680;26.324;2024-03-02T13:02:30;286.00;;;124.83;;
9739;SDS011;4909;42.680;26.324;2024-03-02T13:04:57;285.23;;;118.70;;
9739;SDS011;4909;42.680;26.324;2024-03-02T13:07:26;287.13;;;123.23;;
9739;SDS011;4909;42.680;26.324;2024-03-02T13:09:54;285.70;;;123.17;;
9739;SDS011;4909;42.680;26.324;2024-03-02T13:12:22;280.50;;;119.70;;
9739;SDS011;4909;42.680;26.324;2024-03-02T13:14:51;291.40;;;126.43;;
9739;SDS011;4909;42.680;26.324;2024-03-02T13:17:19;282.27;;;117.77;;
9739;SDS011;4909;42.680;26.324;2024-03-02T13:19:53;281.83;;;120.43;;
9739;SDS011;4909;42.680;26.324;2024-03-02T13:22:20;279.93;;;122.63;;
9739;SDS011;4909;42.680;26.324;2024-03-02T13:24:50;281.00;;;124.50;;
9739;SDS011;4909;42.680;26.324;2024-03-02T13:27:17;282.37;;;122.67;;
9739;SDS011;4909;42.680;26.324;2024-03-02T13:29:45;277.63;;;120.23;;
9739;SDS011;4909;42.680;26.324;2024-03-02T13:32:13;283.30;;;125.33;;
9739;SDS011;4909;42.680;26.324;2024-03-02T13:34:40;282.47;;;124.40;;
9739;SDS011;4909;42.680;26.324;2024-03-02T13:37:08;282.80;;;126.03;;
9739;SDS011;4909;42.680;26.324;2024-03-02T13:39:35;278.40;;;125.00;;
9739;SDS011;4909;42.680;26.324;2024-03-02T13:42:08;280.67;;;125.17;;
9739;SDS011;4909;42.680;26.324;2024-03-02T13:44:35;280.23;;;123.73;;
9739;SDS011;4909;42.680;26.324;2024-03-02T13:47:03;278.67;;;119.90;;
9739;SDS011;4909;42.680;26.324;2024-03-02T13:49:31;284.97;;;127.33;;
9739;SDS011;4909;42.680;26.324;2024-03-02T13:52:01;284.47;;;121.57;;
9739;SDS011;4909;42.680;26.324;2024-03-02T13:54:36;284.30;;;124.37;;
9739;SDS011;4909;42.680;26.324;2024-03-02T13:57:04;283.47;;;124.23;;
9739;SDS011;4909;42.680;26.324;2024-03-02T13:59:33;285.43;;;126.13;;
9739;SDS011;4909;42.680;26.324;2024-03-02T14:02:00;283.97;;;125.20;;
9739;SDS011;4909;42.680;26.324;2024-03-02T14:04:29;282.90;;;123.53;;
9739;SDS011;4909;42.680;26.324;2024-03-02T14:06:57;283.23;;;123.87;;
9739;SDS011;4909;42.680;26.324;2024-03-02T14:09:24;279.00;;;122.33;;
9739;SDS011;4909;42.680;26.324;2024-03-02T14:11:51;277.57;;;124.87;;
9739;SDS011;4909;42.680;26.324;2024-03-02T14:14:18;272.33;;;122.07;;
9739;SDS011;4909;42.680;26.324;2024-03-02T14:16:46;270.27;;;121.03;;
9739;SDS011;4909;42.680;26.324;2024-03-02T14:19:13;277.27;;;125.47;;
9739;SDS011;4909;42.680;26.324;2024-03-02T14:21:40;278.83;;;139.47;;
9739;SDS011;4909;42.680;26.324;2024-03-02T14:24:08;273.57;;;123.90;;